createdAt,value
2018-12-17T00:00:00.601Z,3.16
2018-12-17T00:01:10.678Z,3.14
2018-12-17T00:02:20.719Z,3.09
2018-12-17T00:03:30.540Z,3.08
2018-12-17T00:04:40.596Z,2.99
2018-12-17T00:05:50.646Z,2.96
2018-12-17T00:07:00.711Z,2.96
2018-12-17T00:08:10.869Z,3.02
2018-12-17T00:09:20.908Z,3.09
2018-12-17T00:10:30.953Z,3.13
2018-12-17T00:11:42.041Z,3.17
2018-12-17T00:12:52.074Z,3.23
2018-12-17T00:14:02.150Z,3.26
2018-12-17T00:15:12.207Z,3.27
2018-12-17T00:16:22.289Z,3.34
2018-12-17T00:17:32.369Z,3.32
2018-12-17T00:18:42.168Z,3.39
2018-12-17T00:19:52.239Z,3.3
2018-12-17T00:21:02.277Z,3.35
2018-12-17T00:22:12.057Z,3.35
2018-12-17T00:23:22.094Z,3.34
2018-12-17T00:24:32.204Z,3.45
2018-12-17T00:25:42.259Z,3.46
2018-12-17T00:26:52.321Z,3.53
2018-12-17T00:28:08.052Z,3.49
2018-12-17T00:29:18.356Z,3.51
2018-12-17T00:30:28.513Z,3.49
2018-12-17T00:31:38.550Z,3.53
2018-12-17T00:32:48.608Z,3.51
2018-12-17T00:33:58.671Z,3.48
2018-12-17T00:35:09.035Z,3.4
2018-12-17T00:36:19.084Z,3.45
2018-12-17T00:37:29.140Z,3.43
2018-12-17T00:38:38.728Z,3.43
2018-12-17T00:39:48.795Z,3.37
2018-12-17T00:40:58.595Z,3.39
2018-12-17T00:42:09.055Z,3.39
2018-12-17T00:43:19.100Z,3.24
2018-12-17T00:44:29.176Z,3.26
2018-12-17T00:45:39.236Z,3.17
2018-12-17T00:46:49.283Z,3.26
2018-12-17T00:47:59.374Z,3.13
2018-12-17T00:49:09.433Z,3.14
2018-12-17T00:50:19.485Z,3.16
2018-12-17T00:51:29.531Z,3.16
2018-12-17T00:52:39.580Z,3.16
2018-12-17T00:53:49.626Z,3.13
2018-12-17T00:54:59.676Z,3.24
2018-12-17T00:56:09.728Z,3.27
2018-12-17T00:57:19.769Z,3.23
2018-12-17T00:58:29.568Z,3.26
2018-12-17T00:59:39.616Z,3.21
2018-12-17T01:00:49.657Z,3.17
2018-12-17T01:01:59.745Z,3.16
2018-12-17T01:03:09.894Z,3.11
2018-12-17T01:04:19.682Z,3.17
2018-12-17T01:05:29.486Z,3.16
2018-12-17T01:06:39.542Z,3.19
2018-12-17T01:07:49.601Z,3.14
2018-12-17T01:08:59.652Z,3.08
2018-12-17T01:10:09.691Z,3.13
2018-12-17T01:11:19.739Z,3.13
2018-12-17T01:12:29.792Z,3.13
2018-12-17T01:13:39.837Z,3.26
2018-12-17T01:14:49.885Z,3.21
2018-12-17T01:15:59.925Z,3.27
2018-12-17T01:17:09.757Z,3.24
2018-12-17T01:18:19.819Z,3.24
2018-12-17T01:19:29.615Z,3.27
2018-12-17T01:20:39.174Z,3.26
2018-12-17T01:21:49.217Z,3.14
2018-12-17T01:22:59.313Z,3.19
2018-12-17T01:24:09.372Z,3.21
2018-12-17T01:25:19.409Z,3.11
2018-12-17T01:26:29.447Z,3.16
2018-12-17T01:27:39.509Z,3.11
2018-12-17T01:28:49.548Z,3.17
2018-12-17T01:29:59.344Z,3.19
2018-12-17T01:31:09.716Z,3.14
2018-12-17T01:32:19.577Z,3.14
2018-12-17T01:33:29.627Z,3.14
2018-12-17T01:34:39.486Z,3.13
2018-12-17T01:35:49.523Z,3.03
2018-12-17T01:36:59.326Z,2.99
2018-12-17T01:38:09.167Z,2.95
2018-12-17T01:39:19.213Z,2.96
2018-12-17T01:40:29.070Z,2.84
2018-12-17T01:41:39.123Z,2.87
2018-12-17T01:42:48.912Z,2.9
2018-12-17T01:43:58.719Z,2.9
2018-12-17T01:45:08.591Z,2.85
2018-12-17T01:46:18.731Z,2.95
2018-12-17T01:47:28.776Z,2.83
2018-12-17T01:48:38.562Z,2.83
2018-12-17T01:49:48.618Z,2.78
2018-12-17T01:50:58.149Z,2.76
2018-12-17T01:52:07.965Z,2.8
2018-12-17T01:53:18.008Z,2.76
2018-12-17T01:54:28.060Z,2.76
2018-12-17T01:55:38.111Z,2.7
2018-12-17T01:56:48.167Z,2.8
2018-12-17T01:57:58.295Z,2.7
2018-12-17T01:59:08.092Z,2.67
2018-12-17T02:00:18.142Z,2.65
2018-12-17T02:01:28.194Z,2.7
2018-12-17T02:02:37.992Z,2.66
2018-12-17T02:03:48.287Z,2.62
2018-12-17T02:04:58.382Z,2.65
2018-12-17T02:06:08.433Z,2.6
2018-12-17T02:07:20.141Z,2.6
2018-12-17T02:08:29.939Z,2.58
2018-12-17T02:09:39.750Z,2.63
2018-12-17T02:10:49.625Z,2.6
2018-12-17T02:11:59.697Z,2.52
2018-12-17T02:13:09.761Z,2.48
2018-12-17T02:14:19.555Z,2.49
2018-12-17T02:15:29.608Z,2.52
2018-12-17T02:16:39.648Z,2.47
2018-12-17T02:17:49.184Z,2.44
2018-12-17T02:18:59.214Z,2.34
2018-12-17T02:20:09.253Z,2.38
2018-12-17T02:21:19.367Z,2.36
2018-12-17T02:22:29.426Z,2.45
2018-12-17T02:23:39.475Z,2.45
2018-12-17T02:24:49.275Z,2.42
2018-12-17T02:25:59.058Z,2.44
2018-12-17T02:27:08.598Z,2.42
2018-12-17T02:28:18.641Z,2.4
2018-12-17T02:29:28.679Z,2.44
2018-12-17T02:30:38.735Z,2.42
2018-12-17T02:31:48.539Z,2.41
2018-12-17T02:32:58.361Z,2.42
2018-12-17T02:34:08.434Z,2.49
2018-12-17T02:35:18.474Z,2.48
2018-12-17T02:36:30.177Z,2.42
2018-12-17T02:37:40.220Z,2.48
2018-12-17T02:38:50.287Z,2.47
2018-12-17T02:40:00.340Z,2.47
2018-12-17T02:41:10.129Z,2.4
2018-12-17T02:42:20.178Z,2.45
2018-12-17T02:43:29.968Z,2.44
2018-12-17T02:44:40.003Z,2.44
2018-12-17T02:45:49.811Z,2.45
2018-12-17T02:46:59.877Z,2.4
2018-12-17T02:48:10.025Z,2.41
2018-12-17T02:49:20.065Z,2.36
2018-12-17T02:50:29.871Z,2.41
2018-12-17T02:51:39.974Z,2.4
2018-12-17T02:52:50.014Z,2.4
2018-12-17T02:53:59.804Z,2.45
2018-12-17T02:55:09.959Z,2.45
2018-12-17T02:56:20.011Z,2.44
2018-12-17T02:57:30.070Z,2.41
2018-12-17T02:58:46.482Z,2.44
2018-12-17T02:59:56.539Z,2.44
2018-12-17T03:01:06.585Z,2.44
2018-12-17T03:02:16.735Z,2.42
2018-12-17T03:03:26.803Z,2.49
2018-12-17T03:35:01.076Z,0.27
2018-12-17T03:36:10.864Z,0.2
2018-12-17T03:37:20.908Z,0.17
2018-12-17T03:38:30.949Z,0.2
2018-12-17T03:39:40.744Z,0.14
2018-12-17T03:40:50.686Z,0.26
2018-12-17T03:42:01.205Z,0.31
2018-12-17T03:43:11.252Z,0.39
2018-12-17T03:44:21.314Z,0.57
2018-12-17T03:45:31.362Z,0.6
2018-12-17T03:46:40.990Z,0.75
2018-12-17T03:47:50.798Z,0.86
2018-12-17T03:49:03.310Z,1.03
2018-12-17T03:50:13.386Z,1.12
2018-12-17T03:51:22.937Z,1.17
2018-12-17T03:52:32.974Z,1.3
2018-12-17T03:53:42.764Z,1.44
2018-12-17T03:54:52.288Z,1.48
2018-12-17T03:56:02.090Z,1.61
2018-12-17T03:57:11.902Z,1.65
2018-12-17T03:58:21.718Z,1.76
2018-12-17T03:59:31.503Z,1.78
2018-12-17T04:00:41.341Z,1.66
2018-12-17T04:01:51.385Z,1.82
2018-12-17T04:03:01.434Z,1.76
2018-12-17T04:04:11.558Z,1.79
2018-12-17T04:05:21.630Z,1.83
2018-12-17T04:06:31.671Z,1.89
2018-12-17T04:07:41.725Z,1.87
2018-12-17T04:08:51.796Z,1.94
2018-12-17T04:10:01.924Z,2.02
2018-12-17T04:11:11.731Z,1.98
2018-12-17T04:12:21.788Z,2.06
2018-12-17T04:13:31.835Z,2.05
2018-12-17T04:14:41.883Z,2.09
2018-12-17T04:15:51.717Z,2.16
2018-12-17T04:17:01.791Z,2.13
2018-12-17T04:18:11.852Z,2.08
2018-12-17T04:19:21.898Z,2.16
2018-12-17T04:20:31.950Z,2.15
2018-12-17T04:21:42.056Z,2.05
2018-12-17T04:22:52.096Z,2.16
2018-12-17T04:24:01.899Z,2.16
2018-12-17T04:25:11.963Z,2.15
2018-12-17T04:26:22.003Z,2.11
2018-12-17T04:27:31.803Z,2.12
2018-12-17T04:28:41.947Z,2.22
2018-12-17T04:29:51.733Z,2.13
2018-12-17T04:31:01.777Z,2.22
2018-12-17T04:32:11.319Z,2.22
2018-12-17T04:33:21.115Z,2.16
2018-12-17T04:34:31.182Z,2.13
2018-12-17T04:35:41.246Z,2.24
2018-12-17T04:36:51.306Z,2.15
2018-12-17T04:38:01.182Z,2.11
2018-12-17T04:39:10.983Z,2.22
2018-12-17T04:40:21.054Z,2.12
2018-12-17T04:41:31.103Z,2.18
2018-12-17T04:42:40.908Z,2.15
2018-12-17T04:43:50.452Z,2.09
2018-12-17T04:45:00.550Z,2.05
2018-12-17T04:46:11.822Z,2.08
2018-12-17T04:47:21.895Z,2.12
2018-12-17T04:48:31.940Z,2.13
2018-12-17T04:49:41.739Z,2.02
2018-12-17T04:50:51.270Z,2.12
2018-12-17T04:52:01.396Z,2.12
2018-12-17T04:53:11.449Z,2.11
2018-12-17T04:54:21.509Z,2.04
2018-12-17T04:55:31.298Z,2.02
2018-12-17T04:56:41.434Z,2.01
2018-12-17T04:57:52.297Z,1.97
2018-12-17T04:59:02.367Z,2.05
2018-12-17T05:00:19.810Z,1.98
2018-12-17T05:01:29.915Z,2.08
2018-12-17T05:02:39.969Z,2.06
2018-12-17T05:03:50.021Z,2.06
2018-12-17T05:05:00.085Z,2.09
2018-12-17T05:06:10.178Z,2.13
2018-12-17T05:07:19.960Z,2.13
2018-12-17T05:08:30.021Z,2.13
2018-12-17T05:09:39.800Z,2.09
2018-12-17T05:10:49.862Z,2.11
2018-12-17T05:11:59.666Z,2.12
2018-12-17T05:13:09.723Z,2.12
2018-12-17T05:14:19.839Z,2.13
2018-12-17T05:15:29.640Z,2.06
2018-12-17T05:16:39.716Z,2.12
2018-12-17T05:17:49.882Z,2.04
2018-12-17T05:18:59.654Z,2.08
2018-12-17T05:20:09.752Z,2.12
2018-12-17T05:21:19.576Z,2.08
2018-12-17T05:22:29.367Z,1.97
2018-12-17T05:23:39.149Z,1.98
2018-12-17T05:24:48.951Z,2.04
2018-12-17T05:25:58.602Z,2.05
2018-12-17T05:27:08.386Z,2.02
2018-12-17T05:28:18.439Z,2.01
2018-12-17T05:29:28.488Z,2.02
2018-12-17T05:30:38.551Z,1.98
2018-12-17T05:31:48.725Z,1.97
2018-12-17T05:32:58.535Z,1.92
2018-12-17T05:34:08.323Z,2.01
2018-12-17T05:35:18.400Z,1.93
2018-12-17T05:36:28.476Z,1.89
2018-12-17T05:37:38.518Z,2.01
2018-12-17T05:38:48.566Z,1.92
2018-12-17T05:39:58.611Z,1.97
2018-12-17T05:41:08.679Z,1.92
2018-12-17T05:42:18.518Z,1.87
2018-12-17T05:43:28.660Z,1.93
2018-12-17T05:44:38.709Z,1.94
2018-12-17T05:45:48.821Z,1.98
2018-12-17T05:46:58.619Z,1.93
2018-12-17T05:48:08.664Z,2.02
2018-12-17T05:49:18.448Z,1.97
2018-12-17T05:50:28.270Z,2.05
2018-12-17T05:51:38.338Z,2.02
2018-12-17T05:52:48.403Z,2.05
2018-12-17T05:53:58.453Z,1.98
2018-12-17T05:55:07.988Z,2.11
2018-12-17T05:56:18.057Z,2.09
2018-12-17T05:57:28.149Z,2.12
2018-12-17T05:58:38.210Z,2.12
2018-12-17T05:59:48.359Z,2.11
2018-12-17T06:00:58.157Z,2.16
2018-12-17T06:02:08.245Z,2.13
2018-12-17T06:03:18.283Z,2.16
2018-12-17T06:04:28.334Z,2.13
2018-12-17T06:05:37.881Z,2.18
2018-12-17T06:06:47.936Z,2.16
2018-12-17T06:07:57.727Z,2.22
2018-12-17T06:09:07.869Z,2.18
2018-12-17T06:10:17.921Z,2.13
2018-12-17T06:11:27.728Z,2.2
2018-12-17T06:12:37.520Z,2.18
2018-12-17T06:13:47.579Z,2.22
2018-12-17T06:14:57.364Z,2.18
2018-12-17T06:16:07.405Z,2.22
2018-12-17T06:17:17.561Z,2.2
2018-12-17T06:18:27.854Z,2.18
2018-12-17T06:19:37.907Z,2.2
2018-12-17T06:20:47.942Z,2.13
2018-12-17T06:21:57.980Z,2.18
2018-12-17T06:23:07.783Z,2.24
2018-12-17T06:24:17.835Z,2.22
2018-12-17T06:25:27.888Z,2.27
2018-12-17T06:26:37.745Z,2.23
2018-12-17T06:27:47.783Z,2.09
2018-12-17T06:28:57.815Z,2.12
2018-12-17T06:30:07.977Z,2.15
2018-12-17T06:31:18.013Z,2.12
2018-12-17T06:32:28.061Z,2.08
2018-12-17T06:33:38.095Z,2.23
2018-12-17T06:34:47.879Z,2.16
2018-12-17T06:35:57.934Z,2.22
2018-12-17T06:37:07.744Z,2.16
2018-12-17T06:38:17.543Z,2.22
2018-12-17T06:39:27.592Z,2.23
2018-12-17T06:40:37.115Z,2.18
2018-12-17T06:41:47.174Z,2.18
2018-12-17T06:42:57.234Z,2.26
2018-12-17T06:44:07.288Z,2.16
2018-12-17T06:45:17.087Z,2.23
2018-12-17T06:46:26.621Z,2.16
2018-12-17T06:47:36.666Z,2.23
2018-12-17T06:48:46.223Z,2.3
2018-12-17T06:49:56.019Z,2.33
2018-12-17T06:51:07.320Z,2.27
2018-12-17T06:52:17.359Z,2.34
2018-12-17T06:53:27.405Z,2.34
2018-12-17T06:54:37.444Z,2.41
2018-12-17T06:55:46.980Z,2.41
2018-12-17T06:56:57.080Z,2.38
2018-12-17T06:58:07.681Z,2.42
2018-12-17T06:59:17.471Z,2.4
2018-12-17T07:00:27.551Z,2.41
2018-12-17T07:01:37.614Z,2.44
2018-12-17T07:02:47.660Z,2.41
2018-12-17T07:03:57.197Z,2.44
2018-12-17T07:05:07.239Z,2.55
2018-12-17T07:06:17.311Z,2.44
2018-12-17T07:07:27.367Z,2.41
2018-12-17T07:08:37.470Z,2.44
2018-12-17T07:09:47.517Z,2.44
2018-12-17T07:10:57.576Z,2.4
2018-12-17T07:12:07.688Z,2.4
2018-12-17T07:13:17.485Z,2.4
2018-12-17T07:14:27.281Z,2.44
2018-12-17T07:15:44.360Z,2.34
2018-12-17T07:16:54.153Z,2.27
2018-12-17T07:18:03.960Z,2.45
2018-12-17T07:19:13.747Z,2.47
2018-12-17T07:20:23.794Z,2.4
2018-12-17T07:21:33.852Z,2.45
2018-12-17T07:22:43.382Z,2.49
2018-12-17T07:23:53.173Z,2.51
2018-12-17T07:25:07.547Z,2.51
2018-12-17T07:26:17.599Z,2.48
2018-12-17T07:27:27.664Z,2.59
2018-12-17T07:28:37.707Z,2.55
2018-12-17T07:29:54.567Z,2.63
2018-12-17T07:31:04.379Z,2.69
2018-12-17T07:32:13.928Z,2.7
2018-12-17T07:33:23.824Z,2.58
2018-12-17T07:34:33.876Z,2.77
2018-12-17T07:35:43.664Z,2.69
2018-12-17T07:36:53.716Z,2.73
2018-12-17T07:38:03.762Z,2.73
2018-12-17T07:39:13.813Z,2.77
2018-12-17T07:40:23.606Z,2.8
2018-12-17T07:41:33.708Z,2.76
2018-12-17T07:42:43.761Z,2.83
2018-12-17T07:43:53.561Z,2.91
2018-12-17T07:45:05.197Z,2.96
2018-12-17T07:46:15.333Z,2.9
2018-12-17T07:47:25.442Z,3.05
2018-12-17T07:48:35.253Z,3.01
2018-12-17T07:49:45.306Z,3.08
2018-12-17T07:50:55.362Z,3.13
2018-12-17T07:52:06.612Z,3.16
2018-12-17T07:53:16.675Z,3.11
2018-12-17T07:54:26.735Z,3.14
2018-12-17T07:55:36.795Z,3.13
2018-12-17T07:56:46.910Z,3.2
2018-12-17T07:57:56.944Z,3.19
2018-12-17T07:59:07.004Z,3.13
2018-12-17T08:00:17.059Z,3.17
2018-12-17T08:01:27.098Z,3.2
2018-12-17T08:02:36.889Z,3.26
2018-12-17T08:03:46.967Z,3.26
2018-12-17T08:04:56.777Z,3.24
2018-12-17T08:06:06.826Z,3.3
2018-12-17T08:07:16.640Z,3.3
2018-12-17T08:08:26.441Z,3.19
2018-12-17T08:09:42.976Z,3.35
2018-12-17T08:10:53.040Z,3.3
2018-12-17T08:12:03.688Z,3.3
2018-12-17T08:13:13.485Z,3.35
2018-12-17T08:14:23.532Z,3.34
2018-12-17T08:15:33.596Z,3.37
2018-12-17T08:16:43.419Z,3.42
2018-12-17T08:17:53.538Z,3.51
2018-12-17T08:19:03.584Z,3.56
2018-12-17T08:20:13.899Z,3.56
2018-12-17T08:21:23.957Z,3.51
2018-12-17T08:22:34.015Z,3.69
2018-12-17T08:23:44.077Z,3.74
2018-12-17T08:24:54.147Z,3.61
2018-12-17T08:26:04.041Z,3.74
2018-12-17T08:27:14.092Z,3.69
2018-12-17T08:28:24.144Z,3.78
2018-12-17T08:29:34.193Z,3.66
2018-12-17T08:30:43.995Z,3.81
2018-12-17T08:31:54.098Z,3.74
2018-12-17T08:33:03.659Z,3.81
2018-12-17T08:34:13.791Z,3.85
2018-12-17T08:35:23.830Z,3.79
2018-12-17T08:36:33.637Z,3.89
2018-12-17T08:37:43.754Z,3.86
2018-12-17T08:38:53.283Z,3.84
2018-12-17T08:40:05.593Z,3.84
2018-12-17T08:41:15.399Z,3.86
2018-12-17T08:42:25.445Z,4
2018-12-17T08:43:35.299Z,3.94
2018-12-17T08:44:45.355Z,3.99
2018-12-17T08:45:55.161Z,4.11
2018-12-17T08:47:04.850Z,4.15
2018-12-17T08:48:14.656Z,4.1
2018-12-17T08:49:24.461Z,4.24
2018-12-17T08:50:34.256Z,4.1
2018-12-17T08:51:44.068Z,4.15
2018-12-17T08:52:54.117Z,4.21
2018-12-17T08:54:03.922Z,4.12
2018-12-17T08:55:13.954Z,4.12
2018-12-17T08:56:24.027Z,4.15
2018-12-17T08:57:40.312Z,4.17
2018-12-17T08:58:50.363Z,4.14
2018-12-17T09:00:00.173Z,4.21
2018-12-17T09:01:16.434Z,4.2
2018-12-17T09:02:26.226Z,4.21
2018-12-17T09:03:36.274Z,4.17
2018-12-17T09:04:46.314Z,4.18
2018-12-17T09:05:55.856Z,4.24
2018-12-17T09:07:05.995Z,4.18
2018-12-17T09:08:16.055Z,4.28
2018-12-17T09:09:25.838Z,4.14
2018-12-17T09:10:35.923Z,4.12
2018-12-17T09:11:45.615Z,4.17
2018-12-17T09:12:55.409Z,4.22
2018-12-17T09:14:05.360Z,4.21
2018-12-17T09:15:15.203Z,4.26
2018-12-17T09:16:25.268Z,4.14
2018-12-17T09:17:35.326Z,4.36
2018-12-17T09:18:45.121Z,4.38
2018-12-17T09:19:54.986Z,4.32
2018-12-17T09:21:05.147Z,4.44
2018-12-17T09:22:15.255Z,4.44
2018-12-17T09:23:25.062Z,4.48
2018-12-17T09:24:35.194Z,4.44
2018-12-17T09:25:45.267Z,4.54
2018-12-17T09:26:55.324Z,4.53
2018-12-17T09:28:05.432Z,4.65
2018-12-17T09:29:15.478Z,4.74
2018-12-17T09:30:25.677Z,4.65
2018-12-17T09:31:35.729Z,4.72
2018-12-17T09:32:45.773Z,4.75
2018-12-17T09:33:55.831Z,4.72
2018-12-17T09:35:05.915Z,4.72
2018-12-17T09:36:15.701Z,4.85
2018-12-17T09:37:25.809Z,4.87
2018-12-17T09:38:35.856Z,4.91
2018-12-17T09:39:45.903Z,4.95
2018-12-17T09:40:55.953Z,4.98
2018-12-17T09:42:06.459Z,5.16
2018-12-17T09:43:16.251Z,5.09
2018-12-17T09:44:26.325Z,5.18
2018-12-17T09:45:36.532Z,5.09
2018-12-17T09:46:46.630Z,5.21
2018-12-17T09:47:56.674Z,5.34
2018-12-17T09:49:08.024Z,5.37
2018-12-17T09:50:18.959Z,5.45
2018-12-17T09:51:29.048Z,5.45
2018-12-17T09:52:39.113Z,5.44
2018-12-17T09:53:49.188Z,5.48
2018-12-17T09:54:59.271Z,5.42
2018-12-17T09:56:09.321Z,5.46
2018-12-17T09:57:19.368Z,5.51
2018-12-17T09:58:29.416Z,5.51
2018-12-17T09:59:39.222Z,5.52
2018-12-17T10:00:49.005Z,5.45
2018-12-17T10:01:58.798Z,5.45
2018-12-17T10:03:08.923Z,5.51
2018-12-17T10:04:18.737Z,5.55
2018-12-17T10:05:28.619Z,5.6
2018-12-17T10:06:38.678Z,5.57
2018-12-17T10:07:48.744Z,5.62
2018-12-17T10:08:58.560Z,5.59
2018-12-17T10:10:10.932Z,5.67
2018-12-17T10:11:20.728Z,5.7
2018-12-17T10:12:30.790Z,5.66
2018-12-17T10:13:40.582Z,5.72
2018-12-17T10:14:50.485Z,5.78
2018-12-17T10:16:00.571Z,5.92
2018-12-17T10:17:10.659Z,5.92
2018-12-17T10:18:21.065Z,6.07
2018-12-17T10:19:31.120Z,6.17
2018-12-17T10:20:41.171Z,6.18
2018-12-17T10:21:51.599Z,6.28
2018-12-17T10:23:01.946Z,6.28
2018-12-17T10:24:12.312Z,6.33
2018-12-17T10:25:22.760Z,6.4
2018-12-17T10:26:33.524Z,6.42
2018-12-17T10:27:43.916Z,6.49
2018-12-17T10:28:55.230Z,6.46
2018-12-17T10:30:17.136Z,6.52
2018-12-17T10:31:54.084Z,6.54
2018-12-17T10:33:28.213Z,6.6
2018-12-17T10:34:57.993Z,6.6
2018-12-17T10:36:22.272Z,6.54
2018-12-17T10:37:48.956Z,6.47
2018-12-17T10:39:16.102Z,6.4
2018-12-17T10:40:37.394Z,6.44
2018-12-17T10:42:04.124Z,6.44
2018-12-17T10:43:31.809Z,6.57
2018-12-17T10:45:02.111Z,6.57
2018-12-17T10:46:26.029Z,6.51
2018-12-17T10:47:36.079Z,6.55
2018-12-17T10:48:46.214Z,6.57
2018-12-17T10:49:56.382Z,6.6
2018-12-17T10:51:06.220Z,6.6
2018-12-17T10:52:16.349Z,6.57
2018-12-17T10:53:26.403Z,6.57
2018-12-17T10:54:36.299Z,6.58
2018-12-17T10:55:46.348Z,6.58
2018-12-17T10:56:56.414Z,6.57
2018-12-17T10:58:08.131Z,6.55
2018-12-17T10:59:18.225Z,6.58
2018-12-17T11:00:28.056Z,6.51
2018-12-17T11:01:44.746Z,6.62
2018-12-17T11:02:54.821Z,6.65
2018-12-17T11:04:04.681Z,6.65
2018-12-17T11:05:14.765Z,6.68
2018-12-17T11:06:24.847Z,6.68
2018-12-17T11:07:34.922Z,6.72
2018-12-17T11:08:44.995Z,6.65
2018-12-17T11:09:55.088Z,6.76
2018-12-17T11:11:05.198Z,6.68
2018-12-17T11:12:15.295Z,6.73
2018-12-17T11:13:25.134Z,6.67
2018-12-17T11:14:35.206Z,6.61
2018-12-17T11:15:45.383Z,6.55
2018-12-17T11:16:55.453Z,6.52
2018-12-17T11:18:06.116Z,6.52
2018-12-17T11:19:15.920Z,6.44
2018-12-17T11:20:25.511Z,6.36
2018-12-17T11:21:35.680Z,6.39
2018-12-17T11:22:45.484Z,6.29
2018-12-17T11:23:55.769Z,6.37
2018-12-17T11:25:05.867Z,6.28
2018-12-17T11:26:15.949Z,6.29
2018-12-17T11:27:25.566Z,6.31
2018-12-17T11:28:35.637Z,6.31
2018-12-17T11:29:45.692Z,6.31
2018-12-17T11:30:55.747Z,6.2
2018-12-17T11:32:11.536Z,6.26
2018-12-17T11:33:21.582Z,6.15
2018-12-17T11:34:31.394Z,6.18
2018-12-17T11:35:41.458Z,6.14
2018-12-17T11:36:51.269Z,6.15
2018-12-17T11:38:03.474Z,6.21
2018-12-17T11:39:13.344Z,6.18
2018-12-17T11:40:23.390Z,6.29
2018-12-17T11:41:33.186Z,6.26
2018-12-17T11:42:42.993Z,6.24
2018-12-17T11:43:53.058Z,6.25
2018-12-17T11:45:03.131Z,6.24
2018-12-17T11:46:13.224Z,6.15
2018-12-17T11:47:23.289Z,6.2
2018-12-17T11:48:33.105Z,6.1
2018-12-17T11:49:43.177Z,6.06
2018-12-17T11:50:53.301Z,6.03
2018-12-17T11:52:03.543Z,6.14
2018-12-17T11:53:13.580Z,6.13
2018-12-17T11:54:23.660Z,6.17
2018-12-17T11:55:33.711Z,6.18
2018-12-17T11:56:43.779Z,6.15
2018-12-17T11:57:53.846Z,6.2
2018-12-17T11:59:03.911Z,6.02
2018-12-17T12:00:14.262Z,6.06
2018-12-17T12:01:24.336Z,6.05
2018-12-17T12:02:34.473Z,5.91
2018-12-17T12:03:44.288Z,5.89
2018-12-17T12:04:54.330Z,5.91
2018-12-17T12:06:04.432Z,5.8
2018-12-17T12:07:21.338Z,5.84
2018-12-17T12:08:31.502Z,5.84
2018-12-17T12:09:41.602Z,5.81
2018-12-17T12:10:51.929Z,5.73
2018-12-17T12:12:02.211Z,5.66
2018-12-17T12:13:12.295Z,5.66
2018-12-17T12:14:22.408Z,5.73
2018-12-17T12:15:32.261Z,5.67
2018-12-17T12:16:42.324Z,5.81
2018-12-17T12:17:52.370Z,5.8
2018-12-17T12:19:02.441Z,5.77
2018-12-17T12:20:12.594Z,5.88
2018-12-17T12:21:22.402Z,5.96
2018-12-17T12:22:32.752Z,5.99
2018-12-17T12:23:42.884Z,6.02
2018-12-17T12:24:52.764Z,6.03
2018-12-17T12:26:03.374Z,6.07
2018-12-17T12:27:13.444Z,6.13
2018-12-17T12:28:23.515Z,6.13
2018-12-17T12:29:33.603Z,6.18
2018-12-17T12:30:43.412Z,6.13
2018-12-17T12:31:53.482Z,6.1
2018-12-17T12:33:03.835Z,6.14
2018-12-17T12:34:13.882Z,6.24
2018-12-17T12:35:23.967Z,6.14
2018-12-17T12:36:34.070Z,6.1
2018-12-17T12:37:44.403Z,6.15
2018-12-17T12:38:54.460Z,6.14
2018-12-17T12:40:04.560Z,6.15
2018-12-17T12:41:14.655Z,6.1
2018-12-17T12:42:24.489Z,6.21
2018-12-17T12:43:34.568Z,6.1
2018-12-17T12:44:44.826Z,6.21
2018-12-17T12:45:54.881Z,6.05
2018-12-17T12:47:05.098Z,6.06
2018-12-17T12:48:15.166Z,5.95
2018-12-17T12:49:25.315Z,6.03
2018-12-17T12:50:34.961Z,5.99
2018-12-17T12:51:45.018Z,5.99
2018-12-17T12:52:55.052Z,6.09
2018-12-17T12:54:05.324Z,6.18
2018-12-17T12:55:15.137Z,6.1
2018-12-17T12:56:25.210Z,6.15
2018-12-17T12:57:35.004Z,6.17
2018-12-17T12:58:45.186Z,6.14
2018-12-17T12:59:55.269Z,6
2018-12-17T13:01:12.076Z,6.05
2018-12-17T13:02:22.418Z,5.99
2018-12-17T13:03:32.484Z,5.95
2018-12-17T13:04:42.553Z,5.99
2018-12-17T13:05:52.649Z,5.95
2018-12-17T13:07:03.747Z,5.96
2018-12-17T13:08:14.104Z,5.92
2018-12-17T13:09:23.903Z,5.89
2018-12-17T13:10:33.985Z,5.89
2018-12-17T13:11:44.310Z,5.82
2018-12-17T13:12:54.409Z,5.87
2018-12-17T13:14:04.486Z,5.92
2018-12-17T13:15:14.593Z,5.84
2018-12-17T13:16:24.661Z,5.8
2018-12-17T13:17:34.481Z,5.82
2018-12-17T13:18:44.345Z,5.82
2018-12-17T13:19:54.441Z,5.89
2018-12-17T13:21:04.265Z,5.84
2018-12-17T13:22:14.339Z,5.82
2018-12-17T13:23:24.434Z,5.87
2018-12-17T13:24:34.267Z,5.98
2018-12-17T13:25:44.648Z,5.95
2018-12-17T13:26:54.720Z,5.85
2018-12-17T13:28:05.473Z,5.98
2018-12-17T13:29:15.538Z,5.84
2018-12-17T13:30:25.603Z,5.92
2018-12-17T13:31:35.513Z,5.96
2018-12-17T13:32:45.627Z,5.89
2018-12-17T13:33:55.670Z,5.85
2018-12-17T13:35:05.470Z,5.81
2018-12-17T13:36:17.128Z,5.82
2018-12-17T13:37:27.264Z,5.77
2018-12-17T13:38:37.330Z,5.77
2018-12-17T13:39:47.155Z,5.8
2018-12-17T13:40:57.233Z,5.73
2018-12-17T13:42:07.359Z,5.82
2018-12-17T13:43:17.409Z,5.75
2018-12-17T13:44:27.472Z,5.82
2018-12-17T13:45:37.275Z,5.82
2018-12-17T13:46:47.348Z,5.78
2018-12-17T13:47:57.402Z,5.8
2018-12-17T13:49:08.669Z,5.87
2018-12-17T13:50:18.537Z,5.81
2018-12-17T13:51:35.249Z,5.8
2018-12-17T13:52:45.048Z,5.78
2018-12-17T13:53:55.141Z,5.72
2018-12-17T13:55:05.267Z,5.72
2018-12-17T13:56:15.081Z,5.66
2018-12-17T13:57:24.884Z,5.69
2018-12-17T13:58:34.674Z,5.69
2018-12-17T13:59:44.477Z,5.7
2018-12-17T14:00:54.544Z,5.59
2018-12-17T14:02:04.628Z,5.62
2018-12-17T14:03:14.692Z,5.69
2018-12-17T14:04:24.743Z,5.6
2018-12-17T14:05:34.821Z,5.59
2018-12-17T14:06:44.858Z,5.59
2018-12-17T14:07:54.654Z,5.51
2018-12-17T14:09:04.468Z,5.52
2018-12-17T14:10:14.522Z,5.55
2018-12-17T14:11:24.333Z,5.62
2018-12-17T14:12:34.400Z,5.57
2018-12-17T14:13:44.453Z,5.6
2018-12-17T14:14:54.237Z,5.51
2018-12-17T14:16:04.043Z,5.62
2018-12-17T14:17:14.093Z,5.57
2018-12-17T14:18:23.942Z,5.63
2018-12-17T14:19:34.063Z,5.54
2018-12-17T14:20:44.141Z,5.63
2018-12-17T14:21:54.211Z,5.55
2018-12-17T14:23:05.126Z,5.59
2018-12-17T14:24:15.160Z,5.51
2018-12-17T14:25:25.248Z,5.49
2018-12-17T14:26:35.053Z,5.57
2018-12-17T14:27:45.100Z,5.52
2018-12-17T14:28:55.141Z,5.49
2018-12-17T14:30:04.999Z,5.49
2018-12-17T14:31:15.055Z,5.52
2018-12-17T14:32:24.867Z,5.57
2018-12-17T14:33:34.952Z,5.57
2018-12-17T14:34:45.070Z,5.57
2018-12-17T14:35:54.866Z,5.6
2018-12-17T14:37:04.669Z,5.62
2018-12-17T14:38:14.732Z,5.59
2018-12-17T14:39:24.826Z,5.62
2018-12-17T14:40:34.918Z,5.64
2018-12-17T14:41:44.987Z,5.57
2018-12-17T14:42:55.073Z,5.6
2018-12-17T14:44:05.144Z,5.59
2018-12-17T14:45:15.215Z,5.54
2018-12-17T14:46:25.337Z,5.52
2018-12-17T14:47:35.394Z,5.52
2018-12-17T14:48:45.745Z,5.36
2018-12-17T14:49:57.753Z,5.37
2018-12-17T14:51:08.564Z,5.36
2018-12-17T14:52:20.250Z,5.41
2018-12-17T14:53:30.313Z,5.36
2018-12-17T14:54:40.473Z,5.41
2018-12-17T14:55:50.321Z,5.44
2018-12-17T14:57:00.490Z,5.42
2018-12-17T14:58:10.626Z,5.49
2018-12-17T14:59:20.754Z,5.44
2018-12-17T15:00:30.846Z,5.48
2018-12-17T15:01:41.034Z,5.49
2018-12-17T15:02:51.210Z,5.46
2018-12-17T15:04:01.005Z,5.52
2018-12-17T15:05:10.830Z,5.39
2018-12-17T15:06:20.887Z,5.42
2018-12-17T15:07:32.538Z,5.42
2018-12-17T15:08:42.804Z,5.34
2018-12-17T15:09:52.898Z,5.42
2018-12-17T15:11:02.972Z,5.42
2018-12-17T15:12:13.037Z,5.42
2018-12-17T15:13:23.120Z,5.28
2018-12-17T15:14:33.419Z,5.31
2018-12-17T15:15:43.477Z,5.36
2018-12-17T15:16:53.568Z,5.31
2018-12-17T15:18:03.647Z,5.41
2018-12-17T15:19:14.009Z,5.41
2018-12-17T15:20:23.842Z,5.28
2018-12-17T15:21:33.954Z,5.37
2018-12-17T15:22:44.011Z,5.44
2018-12-17T15:23:54.155Z,5.39
2018-12-17T15:25:04.005Z,5.46
2018-12-17T15:26:14.103Z,5.44
2018-12-17T15:27:24.046Z,5.52
2018-12-17T15:28:33.969Z,5.41
2018-12-17T15:29:43.873Z,5.42
2018-12-17T15:30:54.051Z,5.48
2018-12-17T15:32:04.278Z,5.44
2018-12-17T15:33:14.086Z,5.46
2018-12-17T15:34:24.135Z,5.41
2018-12-17T15:35:34.215Z,5.48
2018-12-17T15:36:45.529Z,5.45
2018-12-17T15:37:55.590Z,5.49
2018-12-17T15:39:05.717Z,5.52
2018-12-17T15:40:15.789Z,5.48
2018-12-17T15:41:25.877Z,5.48
2018-12-17T15:42:43.138Z,5.46
2018-12-17T15:43:53.177Z,5.42
2018-12-17T15:45:03.320Z,5.44
2018-12-17T15:46:13.403Z,5.45
2018-12-17T15:47:23.485Z,5.49
2018-12-17T15:48:33.288Z,5.46
2018-12-17T15:49:43.357Z,5.45
2018-12-17T15:50:53.438Z,5.52
2018-12-17T15:52:03.516Z,5.59
2018-12-17T15:53:13.605Z,5.59
2018-12-17T15:54:23.671Z,5.62
2018-12-17T15:55:33.729Z,5.54
2018-12-17T15:56:43.936Z,5.59
2018-12-17T15:57:54.025Z,5.62
2018-12-17T15:59:03.890Z,5.59
2018-12-17T16:00:13.684Z,5.6
2018-12-17T16:01:23.752Z,5.59
2018-12-17T16:02:33.594Z,5.55
2018-12-17T16:03:43.892Z,5.59
2018-12-17T16:04:53.991Z,5.63
2018-12-17T16:06:04.081Z,5.6
2018-12-17T16:07:14.168Z,5.46
2018-12-17T16:08:24.274Z,5.42
2018-12-17T16:09:34.340Z,5.44
2018-12-17T16:10:44.197Z,5.46